createdAt,value
2018-07-03T00:01:06.630Z,1.80
2018-07-03T00:03:35.054Z,2.10
2018-07-03T00:06:03.527Z,4.20
2018-07-03T00:08:31.910Z,6.47
2018-07-03T00:11:00.341Z,3.37
2018-07-03T00:13:28.793Z,3.67
2018-07-03T00:15:57.194Z,5.43
2018-07-03T00:18:25.606Z,4.33
2018-07-03T00:20:54.029Z,4.27
2018-07-03T00:23:22.424Z,4.17
2018-07-03T00:25:50.974Z,4.43
2018-07-03T00:28:19.355Z,7.20
2018-07-03T00:30:47.777Z,2.50
2018-07-03T00:33:16.202Z,4.57
2018-07-03T00:35:44.617Z,2.47
2018-07-03T00:38:12.990Z,2.47
2018-07-03T00:40:41.388Z,2.50
2018-07-03T00:43:09.780Z,4.47
2018-07-03T00:45:38.189Z,4.30
2018-07-03T00:48:06.638Z,2.77
2018-07-03T00:50:35.051Z,2.00
2018-07-03T00:53:03.454Z,3.83
2018-07-03T00:55:31.913Z,2.67
2018-07-03T00:58:00.363Z,2.63
2018-07-03T01:00:35.066Z,2.73
2018-07-03T01:03:04.385Z,2.97
2018-07-03T01:05:33.086Z,2.50
2018-07-03T01:08:01.494Z,2.30
2018-07-03T01:10:30.379Z,4.17
2018-07-03T01:12:59.432Z,3.17
2018-07-03T01:15:30.614Z,1.97
2018-07-03T01:17:59.945Z,2.57
2018-07-03T01:20:30.050Z,2.47
2018-07-03T01:22:59.890Z,4.13
2018-07-03T01:25:29.013Z,3.50
2018-07-03T01:27:58.742Z,2.60
2018-07-03T01:30:27.980Z,2.50
2018-07-03T01:33:00.359Z,3.50
2018-07-03T01:35:30.238Z,2.60
2018-07-03T01:37:59.695Z,2.50
2018-07-03T01:40:29.865Z,4.47
2018-07-03T01:42:58.886Z,2.20
2018-07-03T01:45:28.254Z,2.33
2018-07-03T01:47:58.172Z,2.37
2018-07-03T01:50:28.926Z,2.30
2018-07-03T01:52:59.719Z,1.97
2018-07-03T01:55:32.261Z,2.33
2018-07-03T01:58:01.231Z,2.60
2018-07-03T02:00:31.229Z,1.90
2018-07-03T02:03:00.187Z,2.20
2018-07-03T02:05:29.238Z,2.47
2018-07-03T02:07:58.874Z,2.13
2018-07-03T02:10:27.765Z,2.90
2018-07-03T02:13:00.131Z,2.17
2018-07-03T02:15:29.780Z,2.00
2018-07-03T02:17:59.234Z,3.33
2018-07-03T02:20:28.302Z,2.43
2018-07-03T02:22:57.422Z,2.07
2018-07-03T02:25:26.180Z,3.60
2018-07-03T02:27:55.704Z,2.40
2018-07-03T02:30:24.457Z,2.70
2018-07-03T02:32:54.025Z,2.70
2018-07-03T02:35:23.224Z,5.23
2018-07-03T02:37:52.182Z,2.63
2018-07-03T02:40:20.895Z,3.00
2018-07-03T02:42:51.513Z,2.77
2018-07-03T02:45:20.662Z,2.60
2018-07-03T02:47:49.429Z,3.50
2018-07-03T02:50:18.647Z,3.50
2018-07-03T02:52:47.564Z,2.83
2018-07-03T02:55:16.892Z,4.53
2018-07-03T02:57:46.790Z,2.87
2018-07-03T03:00:16.131Z,3.87
2018-07-03T03:02:45.204Z,2.73
2018-07-03T03:05:15.145Z,3.40
2018-07-03T03:07:44.587Z,4.03
2018-07-03T03:10:17.739Z,3.30
2018-07-03T03:12:47.905Z,2.83
2018-07-03T03:15:17.417Z,3.27
2018-07-03T03:17:46.347Z,5.60
2018-07-03T03:20:14.945Z,7.83
2018-07-03T03:22:44.959Z,4.78
2018-07-03T03:25:14.446Z,2.60
2018-07-03T03:27:43.701Z,3.67
2018-07-03T03:30:16.565Z,6.30
2018-07-03T03:32:44.953Z,2.73
2018-07-03T03:35:13.373Z,3.87
2018-07-03T03:37:42.197Z,2.50
2018-07-03T03:40:10.709Z,6.27
2018-07-03T03:42:39.146Z,3.00
2018-07-03T03:45:07.593Z,3.27
2018-07-03T03:47:36.037Z,3.73
2018-07-03T03:50:04.798Z,5.93
2018-07-03T03:52:33.240Z,7.03
2018-07-03T03:55:01.837Z,5.97
2018-07-03T03:57:30.220Z,6.00
2018-07-03T03:59:58.594Z,4.50
2018-07-03T04:02:27.013Z,8.07
2018-07-03T04:04:55.417Z,3.70
2018-07-03T04:07:23.781Z,4.30
2018-07-03T04:09:52.217Z,2.73
2018-07-03T04:12:20.590Z,9.70
2018-07-03T04:14:48.977Z,3.77
2018-07-03T04:17:17.361Z,8.00
2018-07-03T04:19:45.933Z,6.50
2018-07-03T04:22:14.352Z,5.70
2018-07-03T04:24:42.821Z,5.70
2018-07-03T04:27:11.270Z,6.20
2018-07-03T04:29:39.869Z,3.43
2018-07-03T04:32:08.305Z,7.67
2018-07-03T04:34:36.738Z,8.77
2018-07-03T04:37:05.339Z,6.13
2018-07-03T04:39:33.748Z,6.07
2018-07-03T04:42:02.124Z,5.30
2018-07-03T04:44:30.548Z,11.20
2018-07-03T04:46:58.966Z,9.27
2018-07-03T04:49:27.344Z,13.97
2018-07-03T04:51:56.081Z,10.60
2018-07-03T04:54:24.482Z,7.83
2018-07-03T04:56:52.892Z,10.13
2018-07-03T04:59:21.392Z,13.70
2018-07-03T05:01:49.777Z,18.40
2018-07-03T05:04:18.178Z,14.07
2018-07-03T05:06:46.581Z,13.83
2018-07-03T05:09:15.086Z,15.20
2018-07-03T05:11:43.578Z,11.43
2018-07-03T05:14:12.073Z,13.43
2018-07-03T05:16:40.462Z,14.80
2018-07-03T05:19:08.909Z,10.10
2018-07-03T05:21:37.325Z,14.33
2018-07-03T05:24:05.771Z,9.00
2018-07-03T05:26:34.226Z,29.50
2018-07-03T05:29:02.628Z,20.20
2018-07-03T05:31:31.109Z,7.10
2018-07-03T05:33:59.551Z,7.23
2018-07-03T05:36:27.966Z,15.27
2018-07-03T05:38:56.374Z,10.07
2018-07-03T05:41:24.784Z,21.37
2018-07-03T05:43:53.638Z,7.07
2018-07-03T05:46:22.082Z,14.13
2018-07-03T05:48:50.511Z,6.27
2018-07-03T05:51:19.138Z,4.93
2018-07-03T05:53:48.430Z,5.23
2018-07-03T05:56:16.887Z,4.53
2018-07-03T05:58:45.237Z,5.53
2018-07-03T06:01:13.685Z,6.53
2018-07-03T06:03:42.377Z,8.93
2018-07-03T06:06:10.903Z,8.17
2018-07-03T06:08:39.336Z,12.00
2018-07-03T06:11:07.804Z,10.77
2018-07-03T06:13:36.213Z,7.63
2018-07-03T06:16:04.781Z,5.63
2018-07-03T06:18:33.254Z,7.27
2018-07-03T06:21:01.707Z,3.87
2018-07-03T06:23:30.138Z,5.10
2018-07-03T06:25:58.642Z,4.33
2018-07-03T06:28:27.154Z,7.93
2018-07-03T06:30:55.850Z,4.27
2018-07-03T06:33:24.303Z,3.03
2018-07-03T06:35:52.813Z,4.70
2018-07-03T06:38:21.309Z,4.67
2018-07-03T06:40:50.118Z,4.37
2018-07-03T06:43:18.597Z,2.00
2018-07-03T06:45:47.080Z,4.93
2018-07-03T06:48:15.555Z,6.90
2018-07-03T06:50:44.050Z,5.07
2018-07-03T06:53:12.508Z,5.07
2018-07-03T06:55:40.993Z,2.67
2018-07-03T06:58:09.374Z,2.87
2018-07-03T07:00:37.871Z,3.07
2018-07-03T07:03:06.383Z,1.73
2018-07-03T07:05:34.855Z,6.37
2018-07-03T07:08:03.385Z,3.03
2018-07-03T07:10:31.818Z,1.93
2018-07-03T07:13:00.235Z,4.43
2018-07-03T07:16:31.743Z,3.30
2018-07-03T07:19:00.582Z,1.40
2018-07-03T07:21:29.039Z,1.60
2018-07-03T07:23:57.918Z,2.27
2018-07-03T07:26:26.400Z,2.00
2018-07-03T07:28:54.911Z,2.03
2018-07-03T07:31:23.471Z,3.57
2018-07-03T07:33:51.901Z,1.40
2018-07-03T07:36:20.377Z,1.27
2018-07-03T07:38:49.305Z,3.00
2018-07-03T07:41:17.804Z,2.77
2018-07-03T07:43:46.428Z,2.07
2018-07-03T07:46:15.032Z,2.60
2018-07-03T07:48:43.671Z,2.13
2018-07-03T07:51:12.126Z,1.73
2018-07-03T07:53:40.747Z,3.57
2018-07-03T07:56:09.564Z,1.47
2018-07-03T07:58:38.037Z,1.63
2018-07-03T08:01:06.582Z,1.83
2018-07-03T08:03:34.997Z,2.57
2018-07-03T08:06:03.494Z,1.90
2018-07-03T08:08:32.006Z,1.77
2018-07-03T08:11:00.542Z,2.20
2018-07-03T08:13:29.011Z,1.67
2018-07-03T08:15:57.545Z,3.30
2018-07-03T08:18:25.937Z,4.40
2018-07-03T08:20:54.446Z,4.57
2018-07-03T08:23:22.897Z,3.23
2018-07-03T08:25:51.392Z,1.80
2018-07-03T08:28:19.840Z,2.73
2018-07-03T08:30:48.346Z,2.13
2018-07-03T08:33:16.774Z,2.70
2018-07-03T08:35:45.276Z,2.00
2018-07-03T08:38:13.826Z,2.60
2018-07-03T08:43:43.729Z,3.43
2018-07-03T08:46:12.280Z,3.60
2018-07-03T08:48:40.802Z,4.37
2018-07-03T08:51:09.296Z,3.53
2018-07-03T08:53:37.769Z,2.93
2018-07-03T08:56:06.252Z,3.17
2018-07-03T08:58:34.700Z,1.63
2018-07-03T09:01:03.181Z,1.80
2018-07-03T09:03:31.657Z,2.73
2018-07-03T09:06:00.063Z,1.40
2018-07-03T09:08:28.704Z,2.23
2018-07-03T09:10:57.238Z,1.57
2018-07-03T09:13:25.726Z,4.87
2018-07-03T09:15:54.277Z,1.40
2018-07-03T09:18:22.778Z,1.83
2018-07-03T09:20:51.247Z,1.87
2018-07-03T09:23:19.701Z,2.53
2018-07-03T09:25:48.493Z,2.15
2018-07-03T09:28:16.954Z,5.30
2018-07-03T09:30:45.436Z,4.63
2018-07-03T09:33:13.815Z,3.23
2018-07-03T09:35:42.233Z,4.87
2018-07-03T09:38:10.655Z,4.57
2018-07-03T09:40:39.489Z,1.87
2018-07-03T09:43:08.006Z,2.83
2018-07-03T09:45:36.952Z,3.60
2018-07-03T09:48:05.744Z,1.87
2018-07-03T09:50:34.184Z,1.27
2018-07-03T09:53:02.644Z,1.67
2018-07-03T09:55:31.079Z,2.30
2018-07-03T09:57:59.545Z,1.27
2018-07-03T10:00:33.365Z,1.63
2018-07-03T10:03:01.985Z,2.20
2018-07-03T10:05:30.361Z,1.40
2018-07-03T10:07:58.788Z,1.50
2018-07-03T10:10:27.207Z,3.33
2018-07-03T10:12:55.683Z,2.00
2018-07-03T10:15:24.130Z,1.50
2018-07-03T10:17:52.506Z,1.95
2018-07-03T10:20:20.913Z,2.25
2018-07-03T10:22:49.297Z,3.27
2018-07-03T10:25:17.728Z,2.98
2018-07-03T10:27:46.157Z,2.87
2018-07-03T10:30:14.540Z,1.10
2018-07-03T10:32:43.844Z,1.40
2018-07-03T10:35:12.284Z,2.60
2018-07-03T10:37:41.282Z,4.33
2018-07-03T10:40:09.662Z,1.60
2018-07-03T10:42:38.111Z,3.25
2018-07-03T10:45:06.537Z,1.22
2018-07-03T10:47:35.002Z,2.50
2018-07-03T10:50:06.264Z,1.73
2018-07-03T10:52:34.748Z,1.65
2018-07-03T10:55:03.181Z,1.70
2018-07-03T10:57:31.617Z,1.55
2018-07-03T11:00:00.104Z,2.20
2018-07-03T11:02:28.582Z,1.67
2018-07-03T11:04:56.963Z,2.17
2018-07-03T11:07:26.495Z,2.55
2018-07-03T11:09:54.901Z,2.35
2018-07-03T11:12:23.464Z,2.45
2018-07-03T11:14:51.889Z,1.95
2018-07-03T11:17:20.365Z,4.05
2018-07-03T11:19:48.897Z,1.87
2018-07-03T11:22:21.950Z,1.50
2018-07-03T11:24:50.410Z,2.17
2018-07-03T11:27:18.830Z,2.27
2018-07-03T11:29:47.419Z,2.67
2018-07-03T11:32:15.860Z,1.47
2018-07-03T11:34:44.287Z,2.08
2018-07-03T11:37:12.713Z,2.27
2018-07-03T11:39:41.150Z,3.17
2018-07-03T11:42:09.649Z,3.55
2018-07-03T11:44:38.099Z,3.72
2018-07-03T11:47:06.877Z,1.70
2018-07-03T11:49:35.429Z,2.58
2018-07-03T11:52:04.061Z,3.42
2018-07-03T11:54:32.492Z,1.65
2018-07-03T11:57:00.961Z,3.10
2018-07-03T11:59:29.372Z,1.22
2018-07-03T12:01:57.790Z,2.17
2018-07-03T12:04:26.221Z,2.87
2018-07-03T12:06:56.089Z,2.70
2018-07-03T12:09:24.542Z,1.47
2018-07-03T12:11:52.970Z,1.98
2018-07-03T12:14:21.417Z,1.87
2018-07-03T12:16:50.246Z,3.20
2018-07-03T12:19:18.634Z,4.85
2018-07-03T12:21:47.058Z,1.82
2018-07-03T12:24:15.521Z,1.95
2018-07-03T12:26:44.033Z,2.62
2018-07-03T12:29:12.637Z,1.65
2018-07-03T12:31:41.009Z,1.45
2018-07-03T12:34:09.521Z,3.00
2018-07-03T12:36:37.980Z,3.72
2018-07-03T12:39:09.285Z,3.22
2018-07-03T12:41:37.777Z,1.75
2018-07-03T12:44:06.963Z,4.97
2018-07-03T12:46:35.381Z,1.95
2018-07-03T12:49:03.825Z,2.70
2018-07-03T12:51:32.199Z,1.87
2018-07-03T12:54:00.654Z,2.42
2018-07-03T12:56:29.024Z,2.27
2018-07-03T12:58:57.419Z,5.35
2018-07-03T13:01:25.837Z,1.57
2018-07-03T13:03:54.341Z,1.22
2018-07-03T13:06:22.785Z,1.65
2018-07-03T13:08:51.209Z,3.08
2018-07-03T13:11:19.670Z,4.42
2018-07-03T13:13:48.132Z,4.55
2018-07-03T13:16:16.538Z,1.32
2018-07-03T13:18:45.014Z,3.10
2018-07-03T13:21:13.449Z,2.80
2018-07-03T13:23:41.852Z,1.72
2018-07-03T13:26:10.862Z,1.37
2018-07-03T13:28:39.357Z,2.45
2018-07-03T13:31:07.769Z,2.80
2018-07-03T13:33:36.189Z,1.70
2018-07-03T13:36:07.889Z,4.75
2018-07-03T13:38:36.317Z,3.42
2018-07-03T13:41:04.831Z,2.10
2018-07-03T13:43:35.274Z,1.75
2018-07-03T13:46:03.738Z,2.30
2018-07-03T13:48:32.181Z,2.72
2018-07-03T13:51:00.635Z,2.70
2018-07-03T13:53:29.108Z,1.50
2018-07-03T13:55:57.649Z,6.30
2018-07-03T13:58:26.079Z,2.17
2018-07-03T14:00:54.561Z,3.17
2018-07-03T14:03:22.966Z,2.42
2018-07-03T14:05:51.393Z,3.80
2018-07-03T14:08:20.110Z,2.37
2018-07-03T14:10:48.633Z,2.83
2018-07-03T14:13:17.418Z,6.60
2018-07-03T14:15:45.982Z,4.00
2018-07-03T14:18:14.498Z,1.50
2018-07-03T14:20:43.007Z,2.20
2018-07-03T14:23:11.536Z,1.92
2018-07-03T14:25:40.060Z,2.67
2018-07-03T14:28:08.686Z,1.75
2018-07-03T14:30:37.453Z,2.52
2018-07-03T14:33:05.935Z,1.70
2018-07-03T14:35:34.425Z,2.00
2018-07-03T14:38:02.879Z,3.67
2018-07-03T14:40:32.862Z,3.27
2018-07-03T14:43:01.345Z,1.77
2018-07-03T14:45:29.874Z,3.90
2018-07-03T14:47:58.329Z,1.50
2018-07-03T14:50:26.848Z,1.82
2018-07-03T14:52:56.540Z,3.05
2018-07-03T14:58:42.897Z,1.80
2018-07-03T15:01:11.373Z,2.65
2018-07-03T15:03:40.106Z,3.52
2018-07-03T15:06:10.128Z,2.05
2018-07-03T15:08:38.838Z,6.00
2018-07-03T15:11:07.581Z,1.72
2018-07-03T15:13:36.050Z,3.70
2018-07-03T15:16:04.618Z,2.75
2018-07-03T15:18:38.358Z,1.70
2018-07-03T15:21:13.514Z,3.55
2018-07-03T15:23:42.035Z,5.30
2018-07-03T15:26:10.616Z,3.52
2018-07-03T15:28:39.937Z,2.15
2018-07-03T15:31:08.371Z,1.90
2018-07-03T15:33:36.930Z,2.00
2018-07-03T15:36:06.161Z,4.50
2018-07-03T15:38:34.605Z,3.22
2018-07-03T15:41:03.108Z,5.85
2018-07-03T15:43:31.481Z,2.60
2018-07-03T15:45:59.903Z,2.45
2018-07-03T15:48:28.305Z,3.37
2018-07-03T15:50:56.974Z,2.33
2018-07-03T15:53:25.372Z,4.25
2018-07-03T15:55:54.159Z,3.52
2018-07-03T15:58:22.573Z,2.15
2018-07-03T16:04:07.383Z,2.12
2018-07-03T16:06:53.081Z,5.87
2018-07-03T16:09:21.487Z,1.72
2018-07-03T16:11:49.893Z,3.60
2018-07-03T16:14:18.514Z,2.33
2018-07-03T16:16:46.954Z,2.20
2018-07-03T16:19:20.620Z,4.62
2018-07-03T16:21:49.040Z,3.22
2018-07-03T16:24:21.699Z,1.87
2018-07-03T16:26:50.184Z,2.95
2018-07-03T16:29:18.708Z,5.40
2018-07-03T16:31:47.230Z,2.92
2018-07-03T16:34:15.807Z,1.98
2018-07-03T16:36:44.220Z,3.33
2018-07-03T16:39:13.349Z,3.35
2018-07-03T16:41:41.748Z,3.25
2018-07-03T16:44:10.665Z,3.58
2018-07-03T16:46:39.722Z,3.67
2018-07-03T16:49:08.202Z,3.92
2018-07-03T16:51:36.649Z,3.22
2018-07-03T16:54:05.089Z,4.47
2018-07-03T16:56:33.505Z,3.05
2018-07-03T16:59:01.902Z,2.62
2018-07-03T17:01:30.357Z,3.12
2018-07-03T17:03:58.756Z,8.20
2018-07-03T17:06:27.233Z,1.87
2018-07-03T17:08:55.649Z,5.08
2018-07-03T17:11:24.038Z,2.75
2018-07-03T17:13:52.569Z,2.33
2018-07-03T17:16:21.024Z,5.70
2018-07-03T17:18:54.526Z,7.80
2018-07-03T17:21:23.493Z,3.05
2018-07-03T17:23:51.978Z,4.67
2018-07-03T17:26:20.421Z,6.12
2018-07-03T17:28:48.836Z,2.10
2018-07-03T17:31:17.283Z,2.60
2018-07-03T17:33:45.708Z,7.72
2018-07-03T17:36:14.226Z,3.95
2018-07-03T17:38:42.645Z,4.80
2018-07-03T17:41:27.050Z,4.33
2018-07-03T17:44:08.202Z,5.25
2018-07-03T17:46:36.651Z,3.70
2018-07-03T17:49:05.375Z,2.77
2018-07-03T17:51:33.873Z,5.62
2018-07-03T17:54:02.242Z,5.50
2018-07-03T17:56:30.717Z,4.15
2018-07-03T17:58:59.318Z,3.95
2018-07-03T18:01:28.898Z,5.30
2018-07-03T18:03:57.316Z,5.47
2018-07-03T18:06:25.820Z,4.62
2018-07-03T18:08:54.201Z,4.28
2018-07-03T18:11:27.084Z,4.22
2018-07-03T18:13:55.506Z,7.22
2018-07-03T18:16:24.018Z,3.62
2018-07-03T18:18:57.682Z,6.28
2018-07-03T18:21:26.118Z,11.20
2018-07-03T18:23:54.531Z,4.10
2018-07-03T18:26:24.117Z,4.80
2018-07-03T18:28:52.546Z,7.35
2018-07-03T18:31:20.944Z,8.75
2018-07-03T18:33:49.327Z,6.78
2018-07-03T18:36:17.706Z,3.45
2018-07-03T18:38:46.101Z,7.62
2018-07-03T18:41:14.545Z,5.60
2018-07-03T18:43:43.073Z,6.70
2018-07-03T18:46:11.498Z,7.75
2018-07-03T18:48:39.931Z,5.47
2018-07-03T18:51:08.375Z,6.10
2018-07-03T18:53:36.849Z,6.12
2018-07-03T18:56:05.561Z,6.90
2018-07-03T18:58:34.046Z,5.90
2018-07-03T19:01:02.488Z,5.35
2018-07-03T19:03:30.967Z,3.25
2018-07-03T19:05:59.396Z,5.20
2018-07-03T19:08:27.861Z,5.08
2018-07-03T19:10:56.281Z,4.42
2018-07-03T19:13:27.840Z,8.20
2018-07-03T19:15:56.246Z,6.62
2018-07-03T19:18:24.664Z,3.55
2018-07-03T19:20:53.048Z,3.70
2018-07-03T19:23:21.664Z,6.25
2018-07-03T19:25:50.100Z,6.60
2018-07-03T19:28:18.545Z,4.22
2018-07-03T19:30:46.957Z,5.92
2018-07-03T19:33:15.401Z,3.35
2018-07-03T19:35:43.826Z,8.48
2018-07-03T19:38:12.241Z,4.30
2018-07-03T19:40:40.660Z,4.72
2018-07-03T19:43:32.708Z,5.85
2018-07-03T19:46:01.751Z,5.53
2018-07-03T19:48:30.394Z,2.65
2018-07-03T19:50:58.880Z,6.23
2018-07-03T19:53:27.378Z,3.97
2018-07-03T19:55:57.121Z,7.53
2018-07-03T19:58:25.555Z,5.37
2018-07-03T20:00:55.110Z,5.53
2018-07-03T20:03:23.534Z,3.53
2018-07-03T20:05:51.985Z,6.77
2018-07-03T20:08:20.423Z,8.27
2018-07-03T20:10:49.077Z,4.23
2018-07-03T20:13:18.379Z,4.43
2018-07-03T20:15:46.834Z,4.87
2018-07-03T20:18:16.093Z,3.43
2018-07-03T20:20:44.574Z,5.97
2018-07-03T20:23:15.085Z,8.87
2018-07-03T20:25:43.515Z,7.80
2018-07-03T20:28:11.952Z,7.03
2018-07-03T20:30:40.378Z,12.60
2018-07-03T20:33:08.905Z,12.97
2018-07-03T20:35:37.309Z,13.60
2018-07-03T20:38:06.806Z,14.50
2018-07-03T20:41:08.282Z,10.67
2018-07-03T20:43:38.770Z,9.23
2018-07-03T20:46:07.990Z,8.17
2018-07-03T20:48:36.452Z,11.13
2018-07-03T20:51:04.851Z,7.63
2018-07-03T20:53:33.278Z,9.40
2018-07-03T20:56:01.649Z,9.10
2018-07-03T20:58:30.078Z,14.40
2018-07-03T21:00:58.493Z,7.17
2018-07-03T21:03:27.020Z,10.83
2018-07-03T21:05:55.601Z,7.63
2018-07-03T21:08:24.000Z,9.27
2018-07-03T21:10:52.626Z,10.63
2018-07-03T21:13:21.066Z,4.50
2018-07-03T21:15:49.515Z,8.77
2018-07-03T21:18:18.010Z,5.53
2018-07-03T21:20:46.412Z,6.17
2018-07-03T21:23:14.828Z,7.30
2018-07-03T21:25:43.224Z,8.23
2018-07-03T21:28:11.709Z,15.67
2018-07-03T21:30:40.142Z,9.37
2018-07-03T21:33:08.560Z,6.77
2018-07-03T21:35:37.030Z,8.07
2018-07-03T21:38:05.412Z,8.83
2018-07-03T21:40:33.898Z,6.33
2018-07-03T21:43:03.369Z,4.70
2018-07-03T21:45:31.866Z,3.87
2018-07-03T21:48:00.261Z,8.33
2018-07-03T21:50:28.704Z,6.40
2018-07-03T21:52:57.071Z,8.00
2018-07-03T21:55:25.470Z,9.03
2018-07-03T21:57:53.816Z,11.97
2018-07-03T22:00:30.900Z,4.67
2018-07-03T22:03:00.215Z,7.60
2018-07-03T22:05:28.647Z,7.40
2018-07-03T22:07:57.040Z,8.17
2018-07-03T22:10:25.456Z,5.53
2018-07-03T22:12:53.918Z,4.23
2018-07-03T22:15:22.301Z,5.40
2018-07-03T22:17:50.674Z,3.60
2018-07-03T22:20:19.069Z,5.33
2018-07-03T22:22:47.481Z,6.57
2018-07-03T22:25:15.902Z,5.50
2018-07-03T22:27:44.296Z,7.60
2018-07-03T22:30:12.709Z,10.30
2018-07-03T22:32:41.730Z,4.60
2018-07-03T22:35:10.199Z,5.27
2018-07-03T22:37:38.637Z,5.90
2018-07-03T22:40:07.053Z,4.73
2018-07-03T22:42:35.496Z,5.07
2018-07-03T22:45:03.970Z,6.47
2018-07-03T22:47:32.388Z,6.50
2018-07-03T22:50:00.796Z,9.53
2018-07-03T22:52:29.176Z,7.50
2018-07-03T22:54:57.567Z,6.97
2018-07-03T22:57:25.930Z,3.93
2018-07-03T22:59:54.357Z,6.17
2018-07-03T23:02:22.735Z,4.50
2018-07-03T23:04:51.175Z,3.50
2018-07-03T23:07:19.557Z,14.87
2018-07-03T23:09:47.933Z,5.40
2018-07-03T23:12:19.474Z,4.87
2018-07-03T23:14:49.099Z,11.57
2018-07-03T23:17:17.525Z,8.60
2018-07-03T23:19:46.217Z,4.37
2018-07-03T23:22:14.634Z,6.17
2018-07-03T23:24:43.608Z,4.30
2018-07-03T23:27:12.481Z,4.67
2018-07-03T23:29:40.981Z,4.30
2018-07-03T23:32:09.717Z,3.37
2018-07-03T23:34:38.121Z,2.67
2018-07-03T23:37:06.521Z,7.30
2018-07-03T23:39:34.932Z,5.30
2018-07-03T23:42:03.289Z,3.10
2018-07-03T23:44:31.696Z,3.13
2018-07-03T23:47:11.245Z,3.90
2018-07-03T23:49:50.796Z,4.20
2018-07-03T23:52:30.341Z,3.63
2018-07-03T23:55:09.938Z,4.63
2018-07-03T23:57:49.501Z,4.87
